Time;durP1;ratioP1;P1;durP2;ratioP2;P2;SDS_P1;SDS_P2;PMS_P1;PMS_P2;Temp;Humidity;BMP_temperature;BMP_pressure;BME280_temperature;BME280_humidity;BME280_pressure;Samples;Min_cycle;Max_cycle;Signal;HPM_P1;HPM_P2
2024/01/06 00:02:12;;;;;;;17.70;10.90;;;;;;;0.94;100.00;100992.86;105791;1254;60277;-75
2024/01/06 00:04:39;;;;;;;14.60;10.50;;;;;;;0.98;100.00;100999.35;105870;1254;72967;-75
2024/01/06 00:07:06;;;;;;;16.10;10.90;;;;;;;1.01;100.00;101001.89;106055;1258;63988;-76
2024/01/06 00:09:33;;;;;;;16.50;11.60;;;;;;;1.01;100.00;101015.33;105943;1254;72741;-75
2024/01/06 00:12:02;;;;;;;16.90;11.20;;;;;;;0.99;100.00;101016.20;106536;1260;60924;-74
2024/01/06 00:14:29;;;;;;;14.80;10.80;;;;;;;0.98;100.00;101010.02;106205;1254;59577;-74
2024/01/06 00:16:57;;;;;;;14.70;10.30;;;;;;;0.95;100.00;101002.83;105859;1257;73168;-75
2024/01/06 00:19:24;;;;;;;15.70;11.10;;;;;;;0.93;100.00;101001.48;106214;1259;62425;-74
2024/01/06 00:21:50;;;;;;;15.10;11.10;;;;;;;0.96;100.00;101010.58;107098;1254;71346;-75
2024/01/06 00:24:17;;;;;;;14.50;10.70;;;;;;;0.95;100.00;101009.20;107902;1254;59575;-72
2024/01/06 00:26:44;;;;;;;18.30;11.80;;;;;;;0.93;100.00;101018.70;108397;1255;59196;-73
2024/01/06 00:29:11;;;;;;;15.40;9.90;;;;;;;0.92;100.00;101021.11;106767;1251;73094;-76
2024/01/06 00:31:38;;;;;;;17.80;10.80;;;;;;;0.91;100.00;101023.72;106047;1256;64314;-75
2024/01/06 00:34:05;;;;;;;15.90;10.70;;;;;;;0.91;100.00;101023.89;106670;1250;72496;-73
2024/01/06 00:36:32;;;;;;;15.50;10.80;;;;;;;0.92;100.00;101019.91;107313;1251;59907;-73
2024/01/06 00:38:59;;;;;;;14.60;11.30;;;;;;;0.91;100.00;101016.66;106820;1251;60207;-73
2024/01/06 00:41:26;;;;;;;16.60;10.70;;;;;;;0.91;100.00;101018.39;106451;1253;71576;-74
2024/01/06 00:43:53;;;;;;;14.70;10.20;;;;;;;0.91;100.00;101025.95;106338;1253;63846;-74
2024/01/06 00:46:20;;;;;;;18.10;11.40;;;;;;;0.94;100.00;101030.56;106223;1251;72648;-74
2024/01/06 00:48:48;;;;;;;20.30;12.10;;;;;;;1.00;100.00;101023.77;106100;1254;59958;-73
2024/01/06 00:51:17;;;;;;;13.90;10.30;;;;;;;1.05;100.00;101021.29;106682;1254;60185;-73
2024/01/06 00:53:44;;;;;;;14.10;10.80;;;;;;;1.07;100.00;101022.13;107173;1250;71427;-73
2024/01/06 00:56:11;;;;;;;14.50;10.40;;;;;;;1.07;100.00;101017.81;107334;1251;62376;-72
2024/01/06 00:58:38;;;;;;;16.10;10.70;;;;;;;1.11;100.00;101021.20;106112;1253;71107;-74
2024/01/06 01:01:05;;;;;;;17.50;11.30;;;;;;;1.13;100.00;101028.05;106104;1254;61195;-75
2024/01/06 01:03:32;;;;;;;13.40;9.70;;;;;;;1.14;100.00;101027.54;106005;1253;60280;-75
2024/01/06 01:05:58;;;;;;;18.90;11.30;;;;;;;1.13;100.00;101024.95;106073;1251;72872;-77
2024/01/06 01:08:25;;;;;;;17.90;12.20;;;;;;;1.13;100.00;101026.33;106089;1253;63813;-76
2024/01/06 01:10:53;;;;;;;15.50;11.00;;;;;;;1.11;100.00;101028.09;106006;1253;71633;-76
2024/01/06 01:13:20;;;;;;;17.10;11.20;;;;;;;1.10;100.00;101037.73;106027;1254;59682;-75
2024/01/06 01:15:48;;;;;;;13.20;10.30;;;;;;;1.11;100.00;101044.79;106006;1253;59580;-76
2024/01/06 01:18:15;;;;;;;19.90;12.10;;;;;;;1.12;100.00;101048.40;105993;1254;71761;-75
2024/01/06 01:20:42;;;;;;;17.10;11.60;;;;;;;1.11;100.00;101055.30;106024;1254;63827;-75
2024/01/06 01:23:09;;;;;;;13.80;9.70;;;;;;;1.10;100.00;101058.06;105961;1251;72628;-75
2024/01/06 01:25:38;;;;;;;17.70;11.60;;;;;;;1.05;100.00;101055.71;106090;1251;61113;-78
2024/01/06 01:28:05;;;;;;;17.60;11.80;;;;;;;1.01;100.00;101048.54;106114;1257;59619;-75
2024/01/06 01:30:32;;;;;;;13.70;10.00;;;;;;;1.02;100.00;101054.04;106001;1251;73049;-75
2024/01/06 01:32:59;;;;;;;15.00;11.40;;;;;;;1.05;100.00;101055.39;105888;1256;63528;-74
2024/01/06 01:35:26;;;;;;;16.60;11.30;;;;;;;1.06;100.00;101062.08;105879;1254;70949;-73
2024/01/06 01:37:53;;;;;;;16.40;11.10;;;;;;;1.03;100.00;101058.15;105954;1254;61093;-75
2024/01/06 01:40:20;;;;;;;17.30;11.80;;;;;;;0.98;100.00;101066.31;106127;1250;60421;-76
2024/01/06 01:42:47;;;;;;;20.40;10.90;;;;;;;0.94;100.00;101068.25;106027;1254;73052;-75
2024/01/06 01:45:14;;;;;;;19.50;13.00;;;;;;;0.93;100.00;101060.17;106154;1253;63864;-75
2024/01/06 01:47:42;;;;;;;17.70;11.70;;;;;;;0.93;100.00;101059.14;105968;1263;72699;-75
2024/01/06 01:50:09;;;;;;;17.30;11.70;;;;;;;0.96;100.00;101063.94;105868;1257;60975;-76
2024/01/06 01:52:38;;;;;;;18.10;11.70;;;;;;;0.97;100.00;101064.59;106009;1256;60239;-75
2024/01/06 01:55:05;;;;;;;16.00;10.80;;;;;;;1.01;100.00;101069.20;106072;1252;73049;-74
2024/01/06 01:57:31;;;;;;;16.90;12.00;;;;;;;1.01;100.00;101071.79;105988;1253;62804;-75
2024/01/06 01:59:58;;;;;;;20.30;11.90;;;;;;;1.00;100.00;101073.52;105949;1253;72493;-75
2024/01/06 02:02:25;;;;;;;19.00;12.50;;;;;;;0.98;100.00;101062.52;105777;1255;60017;-75
2024/01/06 02:04:52;;;;;;;18.50;12.40;;;;;;;0.95;100.00;101060.67;105988;1254;59640;-78
2024/01/06 02:07:19;;;;;;;16.80;12.00;;;;;;;0.92;100.00;101064.67;106133;1254;72952;-75
2024/01/06 02:09:46;;;;;;;20.60;13.10;;;;;;;0.90;100.00;101066.07;106110;1254;62356;-76
2024/01/06 02:12:14;;;;;;;17.90;12.00;;;;;;;0.87;100.00;101061.11;106030;1251;72481;-76
2024/01/06 02:14:43;;;;;;;18.20;11.40;;;;;;;0.85;100.00;101060.64;106111;1253;61084;-75
2024/01/06 02:17:10;;;;;;;17.20;12.00;;;;;;;0.83;100.00;101062.55;105984;1253;59629;-75
2024/01/06 02:19:36;;;;;;;19.10;12.80;;;;;;;0.79;100.00;101061.55;105960;1256;73065;-75
2024/01/06 02:22:04;;;;;;;19.90;12.10;;;;;;;0.76;100.00;101059.02;105956;1254;62405;-77
2024/01/06 02:24:31;;;;;;;17.00;12.00;;;;;;;0.73;100.00;101063.02;106006;1255;73278;-75
2024/01/06 02:26:58;;;;;;;18.70;12.30;;;;;;;0.69;100.00;101070.81;106093;1263;61102;-73
2024/01/06 02:29:25;;;;;;;21.70;13.30;;;;;;;0.65;100.00;101079.64;106002;1253;59971;-76
2024/01/06 02:31:53;;;;;;;20.00;13.10;;;;;;;0.63;100.00;101085.69;106036;1255;73039;-75
2024/01/06 02:34:19;;;;;;;19.70;12.90;;;;;;;0.60;100.00;101089.14;105971;1253;63607;-76
2024/01/06 02:36:46;;;;;;;21.00;13.50;;;;;;;0.60;100.00;101084.66;105919;1254;72732;-75
2024/01/06 02:39:13;;;;;;;20.20;12.90;;;;;;;0.59;100.00;101086.22;105982;1263;61184;-76
2024/01/06 02:41:40;;;;;;;20.90;13.80;;;;;;;0.59;100.00;101090.70;105952;1252;60219;-75
2024/01/06 02:44:08;;;;;;;21.20;13.60;;;;;;;0.59;100.00;101092.25;105947;1251;72434;-74
2024/01/06 02:46:38;;;;;;;20.20;14.30;;;;;;;0.59;100.00;101084.85;105881;1251;63662;-75
2024/01/06 02:49:05;;;;;;;16.40;11.70;;;;;;;0.59;100.00;101081.75;106022;1263;72512;-76
2024/01/06 02:51:32;;;;;;;21.50;13.20;;;;;;;0.56;100.00;101074.06;105917;1254;61416;-75
2024/01/06 02:54:00;;;;;;;17.30;11.80;;;;;;;0.52;100.00;101077.55;105987;1257;60243;-75
2024/01/06 02:56:27;;;;;;;21.60;14.50;;;;;;;0.47;100.00;101083.45;106120;1253;72895;-74
2024/01/06 02:58:54;;;;;;;29.70;22.70;;;;;;;0.44;100.00;101095.34;106029;1254;63794;-75
2024/01/06 03:01:21;;;;;;;21.50;15.40;;;;;;;0.44;100.00;101093.10;106117;1250;71241;-76
2024/01/06 03:03:49;;;;;;;19.80;14.10;;;;;;;0.46;100.00;101096.35;106003;1263;61220;-75
2024/01/06 03:06:15;;;;;;;23.80;14.30;;;;;;;0.47;100.00;101099.27;106058;1251;59529;-77
2024/01/06 03:08:42;;;;;;;19.90;13.20;;;;;;;0.46;100.00;101110.46;106018;1251;72993;-75
2024/01/06 03:11:10;;;;;;;20.70;13.80;;;;;;;0.45;100.00;101112.02;106051;1252;62324;-77
2024/01/06 03:13:37;;;;;;;18.60;13.10;;;;;;;0.45;100.00;101117.52;106011;1255;72471;-73
2024/01/06 03:16:05;;;;;;;17.50;12.70;;;;;;;0.43;100.00;101129.41;105982;1254;60845;-75
2024/01/06 03:18:32;;;;;;;22.90;14.00;;;;;;;0.40;100.00;101142.17;106077;1251;60378;-75
2024/01/06 03:21:00;;;;;;;25.70;14.70;;;;;;;0.34;100.00;101158.23;106057;1254;72050;-73
2024/01/06 03:23:26;;;;;;;17.80;12.30;;;;;;;0.27;100.00;101171.19;106003;1253;62347;-75
2024/01/06 03:25:53;;;;;;;21.30;13.00;;;;;;;0.24;100.00;101179.97;105968;1254;71076;-75
2024/01/06 03:28:20;;;;;;;14.70;9.70;;;;;;;0.18;100.00;101176.77;106039;1254;61186;-75
2024/01/06 03:30:48;;;;;;;13.40;8.60;;;;;;;0.11;100.00;101175.77;106042;1254;59630;-74
2024/01/06 03:33:15;;;;;;;10.90;7.40;;;;;;;0.05;100.00;101174.80;106108;1256;72963;-74
2024/01/06 03:35:42;;;;;;;10.50;6.70;;;;;;;0.01;100.00;101171.55;106049;1254;62374;-73
2024/01/06 03:38:09;;;;;;;10.80;6.20;;;;;;;-0.03;100.00;101170.04;106052;1251;71108;-73
2024/01/06 03:40:36;;;;;;;10.30;5.80;;;;;;;-0.07;100.00;101164.40;105961;1255;61122;-75
2024/01/06 03:43:04;;;;;;;10.90;6.50;;;;;;;-0.08;100.00;101164.41;106006;1254;60419;-75
2024/01/06 03:45:30;;;;;;;7.50;5.50;;;;;;;-0.10;100.00;101168.88;106037;1254;73754;-76
2024/01/06 03:47:57;;;;;;;8.60;5.90;;;;;;;-0.10;100.00;101167.00;106116;1254;62420;-76
2024/01/06 03:50:24;;;;;;;9.30;7.00;;;;;;;-0.12;100.00;101169.08;105968;1257;71295;-78
2024/01/06 03:52:51;;;;;;;13.20;6.60;;;;;;;-0.15;100.00;101162.41;105996;1254;61171;-77
2024/01/06 03:55:19;;;;;;;9.20;6.80;;;;;;;-0.21;100.00;101164.16;105980;1251;60527;-75
2024/01/06 03:57:45;;;;;;;8.30;5.80;;;;;;;-0.25;100.00;101172.95;106014;1252;73674;-76
2024/01/06 04:00:13;;;;;;;10.30;6.20;;;;;;;-0.25;100.00;101172.09;105931;1260;62372;-75
2024/01/06 04:02:40;;;;;;;8.60;6.30;;;;;;;-0.26;100.00;101172.95;106005;1250;72599;-76
2024/01/06 04:05:06;;;;;;;10.10;7.60;;;;;;;-0.27;100.00;101183.61;105997;1254;61123;-76
2024/01/06 04:07:33;;;;;;;9.70;6.10;;;;;;;-0.28;100.00;101186.71;106023;1251;60396;-77
2024/01/06 04:10:00;;;;;;;7.00;5.90;;;;;;;-0.29;100.00;101185.35;105998;1254;72616;-76
2024/01/06 04:12:27;;;;;;;9.50;6.30;;;;;;;-0.29;100.00;101174.68;106021;1252;63839;-75
2024/01/06 04:14:54;;;;;;;10.30;6.90;;;;;;;-0.30;100.00;101166.79;106017;1255;71173;-76
2024/01/06 04:17:21;;;;;;;10.20;6.90;;;;;;;-0.36;100.00;101172.67;105982;1254;60395;-76
2024/01/06 04:19:47;;;;;;;13.10;9.60;;;;;;;-0.40;100.00;101176.83;105984;1251;60514;-75
2024/01/06 04:22:15;;;;;;;15.20;10.40;;;;;;;-0.42;100.00;101182.66;106081;1255;72346;-77
2024/01/06 04:24:42;;;;;;;18.40;11.80;;;;;;;-0.43;100.00;101176.14;105977;1256;62460;-75
2024/01/06 04:27:09;;;;;;;14.50;11.10;;;;;;;-0.44;100.00;101168.95;106008;1254;72709;-73
2024/01/06 04:29:37;;;;;;;15.00;11.60;;;;;;;-0.45;100.00;101166.02;105985;1256;61213;-74
2024/01/06 04:32:04;;;;;;;11.40;8.80;;;;;;;-0.46;100.00;101165.00;106009;1253;60415;-74
2024/01/06 04:34:31;;;;;;;12.80;8.70;;;;;;;-0.48;100.00;101167.59;105996;1253;73799;-75
2024/01/06 04:36:59;;;;;;;24.70;12.30;;;;;;;-0.50;100.00;101171.71;106013;1254;63751;-74
2024/01/06 04:39:27;;;;;;;19.60;10.80;;;;;;;-0.53;100.00;101167.96;106148;1254;72610;-75
2024/01/06 04:41:54;;;;;;;19.80;12.40;;;;;;;-0.56;100.00;101170.04;106348;1254;61231;-74
2024/01/06 04:44:22;;;;;;;19.80;10.70;;;;;;;-0.59;100.00;101166.80;107926;1251;60378;-77
2024/01/06 04:46:49;;;;;;;19.40;12.00;;;;;;;-0.61;100.00;101171.77;106499;1250;72308;-75
2024/01/06 04:49:16;;;;;;;15.00;10.40;;;;;;;-0.64;100.00;101173.34;106917;1251;61341;-75
2024/01/06 04:51:44;;;;;;;25.00;14.70;;;;;;;-0.65;100.00;101170.94;108068;1251;72680;-73
2024/01/06 04:54:11;;;;;;;21.20;11.90;;;;;;;-0.65;100.00;101179.35;107748;1251;60520;-74
2024/01/06 04:56:38;;;;;;;21.30;13.50;;;;;;;-0.63;100.00;101184.15;106147;1254;60431;-76
2024/01/06 04:59:06;;;;;;;22.00;14.30;;;;;;;-0.61;100.00;101193.41;105976;1250;72257;-78
2024/01/06 05:01:33;;;;;;;23.40;13.10;;;;;;;-0.62;100.00;101194.45;106113;1254;62348;-75
2024/01/06 05:04:00;;;;;;;26.30;16.10;;;;;;;-0.63;100.00;101191.19;106064;1251;71605;-75
2024/01/06 05:06:27;;;;;;;31.70;17.50;;;;;;;-0.66;100.00;101187.78;106020;1253;62205;-75
2024/01/06 05:08:54;;;;;;;25.40;13.10;;;;;;;-0.67;100.00;101188.13;105968;1251;60549;-75
2024/01/06 05:11:21;;;;;;;17.70;11.70;;;;;;;-0.66;100.00;101193.95;105995;1251;73595;-77
2024/01/06 05:13:47;;;;;;;16.70;11.30;;;;;;;-0.67;100.00;101204.08;105987;1254;63795;-76
2024/01/06 05:16:14;;;;;;;15.40;9.10;;;;;;;-0.67;100.00;101216.97;106021;1251;72632;-75
2024/01/06 05:18:42;;;;;;;25.20;11.90;;;;;;;-0.68;100.00;101225.56;106093;1254;61151;-75
2024/01/06 05:21:09;;;;;;;24.90;12.30;;;;;;;-0.70;100.00;101226.92;106063;1254;60325;-76
2024/01/06 05:23:37;;;;;;;22.80;14.20;;;;;;;-0.73;100.00;101224.72;106006;1253;73708;-75
2024/01/06 05:26:04;;;;;;;30.70;18.50;;;;;;;-0.75;100.00;101225.23;106053;1251;62291;-73
2024/01/06 05:28:31;;;;;;;29.60;17.30;;;;;;;-0.79;100.00;101229.71;106068;1251;72598;-74
2024/01/06 05:30:59;;;;;;;44.50;19.70;;;;;;;-0.84;100.00;101238.99;105974;1252;60709;-74
2024/01/06 05:33:26;;;;;;;43.10;20.10;;;;;;;-0.89;100.00;101243.83;105976;1255;60415;-75
2024/01/06 05:35:53;;;;;;;28.80;17.50;;;;;;;-0.92;100.00;101253.27;106070;1251;73847;-75
2024/01/06 05:38:19;;;;;;;45.50;22.00;;;;;;;-0.95;100.00;101251.04;106025;1253;63633;-76
2024/01/06 05:40:46;;;;;;;41.00;22.80;;;;;;;-0.95;100.00;101252.23;105969;1251;72734;-76
2024/01/06 05:43:13;;;;;;;33.10;19.00;;;;;;;-0.96;100.00;101254.64;105970;1254;62004;-76
2024/01/06 05:45:41;;;;;;;31.90;21.60;;;;;;;-0.97;100.00;101249.16;105919;1253;60413;-74
2024/01/06 05:48:10;;;;;;;37.20;23.20;;;;;;;-0.97;100.00;101244.35;105888;1251;72560;-75
2024/01/06 05:50:39;;;;;;;29.70;19.80;;;;;;;-0.97;100.00;101248.30;106004;1251;61401;-75
2024/01/06 05:53:06;;;;;;;36.80;19.40;;;;;;;-0.97;100.00;101245.21;105990;1254;71269;-77
2024/01/06 05:55:33;;;;;;;43.90;21.30;;;;;;;-0.95;100.00;101246.06;105916;1250;61842;-76
2024/01/06 05:58:01;;;;;;;33.70;21.90;;;;;;;-0.93;100.00;101241.95;105937;1251;60479;-76
2024/01/06 06:00:31;;;;;;;33.40;18.60;;;;;;;-0.90;100.00;101239.19;105942;1249;73742;-76
2024/01/06 06:02:58;;;;;;;33.90;21.70;;;;;;;-0.87;100.00;101234.88;105967;1254;63665;-75
2024/01/06 06:05:26;;;;;;;34.50;21.60;;;;;;;-0.87;100.00;101236.59;105959;1254;71095;-76
2024/01/06 06:07:52;;;;;;;37.10;20.40;;;;;;;-0.83;100.00;101246.73;105976;1254;62425;-76
2024/01/06 06:10:20;;;;;;;43.60;25.70;;;;;;;-0.80;100.00;101245.69;105888;1251;60468;-76
2024/01/06 06:12:47;;;;;;;63.80;34.70;;;;;;;-0.75;100.00;101237.27;105952;1249;72923;-75
2024/01/06 06:15:15;;;;;;;52.90;27.60;;;;;;;-0.70;100.00;101237.57;105944;1253;63896;-76
2024/01/06 06:17:43;;;;;;;47.20;25.40;;;;;;;-0.66;100.00;101234.30;105978;1251;72589;-76
2024/01/06 06:20:09;;;;;;;51.90;28.20;;;;;;;-0.64;100.00;101234.64;106010;1251;60529;-76
2024/01/06 06:22:36;;;;;;;50.60;26.90;;;;;;;-0.59;100.00;101242.01;105992;1251;60466;-76
2024/01/06 06:25:04;;;;;;;54.90;29.00;;;;;;;-0.51;100.00;101247.13;106075;1251;72388;-76
2024/01/06 06:27:32;;;;;;;41.70;24.80;;;;;;;-0.43;100.00;101248.29;106060;1254;64449;-75
2024/01/06 06:29:59;;;;;;;52.90;29.00;;;;;;;-0.34;100.00;101259.24;106080;1251;72769;-75
2024/01/06 06:32:25;;;;;;;44.10;26.40;;;;;;;-0.24;100.00;101259.36;106076;1254;60411;-74
2024/01/06 06:34:52;;;;;;;47.90;26.60;;;;;;;-0.18;100.00;101257.61;106007;1251;60574;-75
2024/01/06 06:37:19;;;;;;;45.30;27.10;;;;;;;-0.13;100.00;101262.05;106046;1254;73899;-75
2024/01/06 06:39:46;;;;;;;52.00;30.10;;;;;;;-0.08;100.00;101257.56;105996;1251;61346;-76
2024/01/06 06:42:13;;;;;;;72.80;42.00;;;;;;;-0.03;100.00;101263.71;105989;1251;72687;-74
2024/01/06 06:44:49;;;;;;;47.00;27.90;;;;;;;0.03;100.00;101272.63;106501;1251;60727;-75
2024/01/06 06:47:19;;;;;;;47.70;27.00;;;;;;;0.08;100.00;101286.69;106219;1251;60547;-77
2024/01/06 06:49:46;;;;;;;53.90;31.30;;;;;;;0.11;100.00;101291.82;106130;1254;73847;-77
2024/01/06 06:52:13;;;;;;;44.20;27.60;;;;;;;0.13;100.00;101285.44;105999;1254;63875;-76
2024/01/06 06:54:41;;;;;;;31.90;21.90;;;;;;;0.18;100.00;101286.97;106066;1251;72599;-76
2024/01/06 06:57:08;;;;;;;32.50;21.10;;;;;;;0.23;100.00;101289.51;106020;1254;62384;-76
2024/01/06 06:59:35;;;;;;;29.10;19.90;;;;;;;0.26;100.00;101278.49;105967;1254;60520;-76
2024/01/06 07:02:01;;;;;;;40.50;23.40;;;;;;;0.30;100.00;101266.59;106063;1254;73965;-76
2024/01/06 07:04:28;;;;;;;44.50;25.50;;;;;;;0.36;100.00;101266.20;106051;1254;63952;-75
2024/01/06 07:06:55;;;;;;;41.90;23.90;;;;;;;0.42;100.00;101259.79;105985;1254;71436;-77
2024/01/06 07:09:23;;;;;;;43.60;27.30;;;;;;;0.47;100.00;101264.91;105954;1249;60993;-76
2024/01/06 07:11:50;;;;;;;34.20;23.00;;;;;;;0.52;100.00;101272.96;106040;1251;60453;-76
2024/01/06 07:14:17;;;;;;;40.20;24.90;;;;;;;0.54;100.00;101278.96;106037;1251;72892;-76
2024/01/06 07:16:45;;;;;;;38.10;24.70;;;;;;;0.57;100.00;101263.46;105986;1254;63762;-76
2024/01/06 07:19:12;;;;;;;47.60;26.50;;;;;;;0.61;100.00;101262.73;106044;1251;72751;-76
2024/01/06 07:21:38;;;;;;;43.00;27.80;;;;;;;0.66;100.00;101271.82;106026;1251;60468;-76
2024/01/06 07:24:05;;;;;;;56.10;29.90;;;;;;;0.71;100.00;101271.27;105980;1251;60469;-76
2024/01/06 07:26:32;;;;;;;46.50;25.20;;;;;;;0.75;100.00;101257.11;106071;1253;73827;-75
2024/01/06 07:28:59;;;;;;;42.70;27.40;;;;;;;0.81;100.00;101261.36;106069;1254;63777;-77
2024/01/06 07:31:26;;;;;;;45.90;28.40;;;;;;;0.88;100.00;101273.85;106047;1251;72643;-75
2024/01/06 07:33:53;;;;;;;44.20;26.70;;;;;;;0.96;100.00;101291.69;106027;1253;60940;-75
2024/01/06 07:36:21;;;;;;;40.30;24.30;;;;;;;1.03;100.00;101294.89;106075;1251;60395;-77
2024/01/06 07:38:48;;;;;;;47.70;27.20;;;;;;;1.08;100.00;101294.14;105942;1251;72341;-72
2024/01/06 07:41:16;;;;;;;38.50;22.10;;;;;;;1.13;100.00;101290.49;106045;1254;62895;-73
2024/01/06 07:43:43;;;;;;;40.40;23.00;;;;;;;1.18;100.00;101281.30;105941;1251;70359;-74
2024/01/06 07:46:10;;;;;;;41.70;22.60;;;;;;;1.25;100.00;101282.42;106025;1255;60541;-74
2024/01/06 07:48:37;;;;;;;54.60;25.20;;;;;;;1.32;100.00;101284.25;105923;1250;60453;-76
2024/01/06 07:51:04;;;;;;;48.40;24.40;;;;;;;1.37;100.00;101294.38;106083;1254;73844;-75
2024/01/06 07:53:32;;;;;;;39.30;21.00;;;;;;;1.42;100.00;101290.00;105954;1254;62465;-74
2024/01/06 07:55:58;;;;;;;38.80;23.20;;;;;;;1.43;100.00;101285.33;105989;1251;72642;-76
2024/01/06 07:58:27;;;;;;;32.90;19.20;;;;;;;1.44;100.00;101286.52;105938;1257;61129;-76
2024/01/06 08:00:54;;;;;;;33.70;20.90;;;;;;;1.42;100.00;101285.86;106061;1253;60437;-76
2024/01/06 08:03:21;;;;;;;32.20;18.70;;;;;;;1.40;100.00;101281.05;105990;1251;72326;-76
2024/01/06 08:05:49;;;;;;;30.20;18.00;;;;;;;1.43;100.00;101283.61;106091;1251;63920;-75
2024/01/06 08:08:18;;;;;;;32.90;18.80;;;;;;;1.47;100.00;101278.39;106090;1251;72578;-75
2024/01/06 08:10:45;;;;;;;30.60;17.30;;;;;;;1.45;100.00;101279.98;106089;1252;60833;-76
2024/01/06 08:13:13;;;;;;;29.30;19.30;;;;;;;1.44;100.00;101276.52;106017;1254;60402;-75
2024/01/06 08:15:40;;;;;;;26.30;16.80;;;;;;;1.46;100.00;101266.70;106071;1253;73709;-75
2024/01/06 08:18:07;;;;;;;27.70;16.50;;;;;;;1.46;100.00;101269.96;106092;1253;62797;-78
2024/01/06 08:20:34;;;;;;;24.30;15.50;;;;;;;1.44;100.00;101269.46;105913;1251;71406;-77
2024/01/06 08:23:01;;;;;;;30.10;17.60;;;;;;;1.43;100.00;101267.77;106514;1251;61084;-76
2024/01/06 08:25:28;;;;;;;31.90;20.00;;;;;;;1.46;100.00;101271.34;106932;1251;61338;-76
2024/01/06 08:27:56;;;;;;;26.50;16.30;;;;;;;1.54;100.00;101268.32;106624;1249;73863;-77
2024/01/06 08:30:23;;;;;;;23.90;16.90;;;;;;;1.62;100.00;101270.28;106021;1251;63764;-77
2024/01/06 08:32:51;;;;;;;25.20;14.80;;;;;;;1.69;100.00;101271.23;105951;1251;71500;-77
2024/01/06 08:35:19;;;;;;;24.10;15.10;;;;;;;1.72;100.00;101277.92;106315;1254;60419;-76
2024/01/06 08:37:46;;;;;;;26.70;16.60;;;;;;;1.70;100.00;101278.63;107813;1252;59176;-76
2024/01/06 08:40:13;;;;;;;26.90;18.10;;;;;;;1.72;100.00;101274.46;106501;1251;72569;-77
2024/01/06 08:42:41;;;;;;;31.20;18.90;;;;;;;1.76;100.00;101269.95;106010;1253;62460;-76
2024/01/06 08:45:08;;;;;;;25.50;14.70;;;;;;;1.77;100.00;101266.13;106055;1251;72646;-77
2024/01/06 08:47:35;;;;;;;27.30;17.60;;;;;;;1.79;100.00;101270.42;105961;1253;61255;-77
2024/01/06 08:50:02;;;;;;;25.80;17.10;;;;;;;1.77;100.00;101271.64;106105;1251;60462;-76
2024/01/06 08:52:30;;;;;;;29.80;18.70;;;;;;;1.78;100.00;101273.70;106027;1251;73946;-76
2024/01/06 08:54:57;;;;;;;31.30;19.10;;;;;;;1.80;100.00;101274.54;106100;1253;61514;-76
2024/01/06 08:57:24;;;;;;;29.70;18.60;;;;;;;1.82;100.00;101272.79;106073;1251;72038;-76
2024/01/06 08:59:51;;;;;;;22.80;15.40;;;;;;;1.85;100.00;101270.34;105848;1251;60526;-76
2024/01/06 09:02:18;;;;;;;20.70;13.10;;;;;;;1.86;100.00;101264.29;106011;1254;60514;-76
2024/01/06 09:04:45;;;;;;;19.60;13.70;;;;;;;1.89;100.00;101249.77;105972;1251;73607;-75
2024/01/06 09:07:13;;;;;;;18.80;11.90;;;;;;;1.92;100.00;101236.79;106259;1252;63672;-75
2024/01/06 09:09:41;;;;;;;22.50;12.30;;;;;;;1.98;100.00;101241.02;106217;1251;72771;-76
2024/01/06 09:12:08;;;;;;;20.10;13.50;;;;;;;1.99;100.00;101235.81;106282;1253;61278;-74
2024/01/06 09:14:35;;;;;;;16.00;9.80;;;;;;;1.99;100.00;101231.17;106051;1256;60527;-77
2024/01/06 09:17:04;;;;;;;22.20;11.20;;;;;;;2.00;100.00;101217.88;106417;1251;73644;-76
2024/01/06 09:19:31;;;;;;;12.40;7.40;;;;;;;1.99;100.00;101218.05;105996;1253;64617;-75
2024/01/06 09:21:58;;;;;;;12.30;7.80;;;;;;;2.02;100.00;101218.71;105998;1251;70380;-76
2024/01/06 09:24:25;;;;;;;10.50;6.70;;;;;;;2.02;100.00;101227.52;105992;1253;61109;-74
2024/01/06 09:26:51;;;;;;;9.00;6.10;;;;;;;2.01;100.00;101230.46;106171;1249;60533;-76
2024/01/06 09:29:18;;;;;;;7.60;5.90;;;;;;;2.00;100.00;101220.83;105966;1251;73867;-76
2024/01/06 09:31:46;;;;;;;11.20;6.40;;;;;;;2.02;100.00;101215.27;106073;1250;63894;-75
2024/01/06 09:34:13;;;;;;;9.80;7.20;;;;;;;2.05;100.00;101206.25;105981;1251;72650;-77
2024/01/06 09:36:41;;;;;;;8.50;6.00;;;;;;;2.09;100.00;101196.00;106081;1252;60620;-77
2024/01/06 09:39:08;;;;;;;10.60;6.40;;;;;;;2.11;100.00;101180.45;106167;1253;60283;-75
2024/01/06 09:41:35;;;;;;;10.80;5.40;;;;;;;2.10;100.00;101169.78;106301;1251;72640;-75
2024/01/06 09:44:02;;;;;;;10.00;6.60;;;;;;;2.05;100.00;101165.20;106318;1253;63753;-75
2024/01/06 09:46:30;;;;;;;12.10;7.30;;;;;;;2.00;100.00;101164.09;106064;1250;72729;-76
2024/01/06 09:48:58;;;;;;;11.00;7.00;;;;;;;1.97;100.00;101158.44;106098;1253;61250;-76
2024/01/06 09:51:26;;;;;;;10.90;7.10;;;;;;;1.98;100.00;101156.70;105954;1255;60402;-77
2024/01/06 09:54:01;;;;;;;14.80;6.40;;;;;;;1.98;100.00;101152.37;105995;1251;73785;-76
2024/01/06 09:56:29;;;;;;;9.40;7.50;;;;;;;1.97;100.00;101148.78;106113;1254;64024;-76
2024/01/06 09:58:56;;;;;;;10.00;7.20;;;;;;;1.96;100.00;101141.20;106013;1250;72635;-76
2024/01/06 10:01:23;;;;;;;13.10;7.30;;;;;;;1.96;100.00;101137.95;105912;1255;61263;-76
2024/01/06 10:03:50;;;;;;;11.60;6.70;;;;;;;1.95;100.00;101133.80;105909;1251;60447;-76
2024/01/06 10:06:17;;;;;;;9.30;6.90;;;;;;;1.89;100.00;101132.52;105949;1253;73865;-75
2024/01/06 10:08:48;;;;;;;11.50;7.60;;;;;;;1.86;100.00;101137.23;105992;1254;63937;-75
2024/01/06 10:11:15;;;;;;;13.10;9.10;;;;;;;1.83;100.00;101136.58;106040;1254;74097;-74
2024/01/06 10:13:41;;;;;;;25.50;9.60;;;;;;;1.84;100.00;101130.20;106165;1250;60526;-75
2024/01/06 10:16:08;;;;;;;9.90;7.20;;;;;;;1.87;100.00;101116.88;106250;1251;60526;-76
2024/01/06 10:18:36;;;;;;;10.20;7.00;;;;;;;1.89;100.00;101102.70;105946;1249;73879;-75
2024/01/06 10:21:07;;;;;;;11.30;8.10;;;;;;;1.86;100.00;101101.02;105954;1251;62739;-76
2024/01/06 10:23:36;;;;;;;10.60;7.60;;;;;;;1.86;100.00;101098.61;105941;1251;72728;-74
2024/01/06 10:26:03;;;;;;;15.50;6.70;;;;;;;1.91;100.00;101097.49;105986;1253;61257;-76
2024/01/06 10:28:32;;;;;;;12.20;8.30;;;;;;;1.98;100.00;101099.11;106076;1254;60284;-77
2024/01/06 10:30:59;;;;;;;13.60;8.00;;;;;;;2.03;100.00;101092.98;105955;1251;74830;-74
2024/01/06 10:33:26;;;;;;;14.40;9.60;;;;;;;2.06;100.00;101091.04;105924;1253;62868;-76
2024/01/06 10:35:55;;;;;;;12.90;8.10;;;;;;;2.07;100.00;101086.36;106073;1250;71147;-76
2024/01/06 10:38:22;;;;;;;13.50;7.70;;;;;;;2.14;100.00;101083.31;106121;1251;60551;-75
2024/01/06 10:40:59;;;;;;;13.90;8.00;;;;;;;2.15;100.00;101078.81;105963;1253;60414;-75
2024/01/06 10:43:27;;;;;;;12.10;8.70;;;;;;;2.15;100.00;101073.30;106027;1250;73303;-76
2024/01/06 10:45:57;;;;;;;12.10;8.20;;;;;;;2.19;100.00;101068.73;106055;1250;62242;-77
2024/01/06 10:48:25;;;;;;;13.40;8.80;;;;;;;2.20;100.00;101067.49;106033;1253;71000;-77
2024/01/06 10:50:53;;;;;;;16.00;10.00;;;;;;;2.21;100.00;101059.39;106070;1251;60421;-74
2024/01/06 10:53:20;;;;;;;13.70;9.30;;;;;;;2.20;100.00;101059.05;105922;1253;60424;-75
2024/01/06 10:55:47;;;;;;;12.20;8.10;;;;;;;2.21;100.00;101051.96;105966;1251;73754;-75
2024/01/06 10:58:16;;;;;;;11.40;7.30;;;;;;;2.22;100.00;101047.46;105789;1256;64069;-74
2024/01/06 11:00:43;;;;;;;15.00;10.40;;;;;;;2.23;100.00;101049.16;105982;1250;72644;-74
2024/01/06 11:03:13;;;;;;;13.80;8.80;;;;;;;2.21;100.00;101043.17;106022;1253;60520;-75